Time;durP1;ratioP1;P1;durP2;ratioP2;P2;SDS_P1;SDS_P2;PMS_P1;PMS_P2;Temp;Humidity;BMP_temperature;BMP_pressure;BME280_temperature;BME280_humidity;BME280_pressure;Samples;Min_cycle;Max_cycle;Signal;HPM_P1;HPM_P2
2023/04/11 00:00:01;;;;;;;130.30;72.28;;;5.70;72.40;;;;;;4722662;29;115232;-82
2023/04/11 00:02:38;;;;;;;125.15;68.78;;;5.70;72.20;;;;;;4739521;29;115816;-83
2023/04/11 00:05:10;;;;;;;117.45;66.93;;;5.60;72.20;;;;;;4743393;29;114907;-82
2023/04/11 00:07:53;;;;;;;128.23;68.43;;;5.60;72.00;;;;;;4709285;29;117367;-83
2023/04/11 00:10:21;;;;;;;118.95;65.88;;;5.50;72.10;;;;;;4728079;29;115873;-83
2023/04/11 00:12:49;;;;;;;117.68;63.47;;;5.50;72.20;;;;;;4741633;29;115242;-83
2023/04/11 00:15:18;;;;;;;120.45;67.15;;;5.50;72.30;;;;;;4729369;29;114614;-83
2023/04/11 00:17:57;;;;;;;117.80;66.53;;;5.50;72.30;;;;;;4727727;29;114725;-83
2023/04/11 00:20:26;;;;;;;108.03;61.53;;;5.50;72.30;;;;;;4731047;29;115043;-84
2023/04/11 00:22:57;;;;;;;112.45;65.20;;;5.40;72.30;;;;;;4717987;29;114866;-83
2023/04/11 00:25:25;;;;;;;116.95;65.47;;;5.50;72.30;;;;;;4702042;29;114743;-84
2023/04/11 00:27:53;;;;;;;111.57;63.20;;;5.50;72.30;;;;;;4687766;29;115509;-84
2023/04/11 00:30:21;;;;;;;112.45;65.43;;;5.40;72.30;;;;;;4720328;29;115935;-84
2023/04/11 00:32:49;;;;;;;115.95;66.80;;;5.40;72.20;;;;;;4738453;29;114889;-83
2023/04/11 00:35:17;;;;;;;125.20;66.93;;;5.40;71.90;;;;;;4707561;29;114889;-83
2023/04/11 00:37:45;;;;;;;123.22;68.20;;;5.40;71.80;;;;;;4722008;29;114671;-83
2023/04/11 00:40:16;;;;;;;115.18;63.35;;;5.30;72.00;;;;;;4736814;29;116150;-83
2023/04/11 00:42:43;;;;;;;121.03;66.90;;;5.20;72.20;;;;;;4706746;29;118906;-82
2023/04/11 00:45:11;;;;;;;117.10;66.45;;;5.20;72.10;;;;;;4720944;29;116680;-83
2023/04/11 00:47:38;;;;;;;107.70;62.72;;;5.20;72.20;;;;;;4705701;29;114783;-82
2023/04/11 00:50:07;;;;;;;122.72;72.57;;;5.20;72.20;;;;;;4690145;29;115338;-82
2023/04/11 00:52:35;;;;;;;129.27;76.53;;;5.20;72.20;;;;;;4735150;29;115320;-82
2023/04/11 00:55:02;;;;;;;117.05;70.20;;;5.20;72.20;;;;;;4721621;29;114824;-84
2023/04/11 00:57:32;;;;;;;124.15;73.28;;;5.20;72.30;;;;;;4734004;29;114853;-82
2023/04/11 01:00:00;;;;;;;123.72;73.93;;;5.10;72.30;;;;;;4719688;29;115943;-83
2023/04/11 01:02:28;;;;;;;119.88;69.53;;;5.10;72.20;;;;;;4688751;29;115104;-82
2023/04/11 01:04:56;;;;;;;119.35;68.45;;;5.10;72.10;;;;;;4726945;29;115292;-81
2023/04/11 01:07:24;;;;;;;125.10;69.90;;;5.10;72.10;;;;;;4721074;29;114607;-82
2023/04/11 01:09:52;;;;;;;122.20;68.30;;;5.10;72.10;;;;;;4720137;29;118433;-82
2023/04/11 01:12:20;;;;;;;112.32;65.88;;;5.00;72.00;;;;;;4720919;29;117935;-82
2023/04/11 01:14:48;;;;;;;109.15;64.10;;;5.00;72.10;;;;;;4722327;29;115790;-81
2023/04/11 01:17:16;;;;;;;107.80;63.05;;;5.00;72.10;;;;;;4721515;29;115395;-81
2023/04/11 01:19:43;;;;;;;111.13;63.53;;;4.90;72.00;;;;;;4721054;29;115235;-82
2023/04/11 01:22:11;;;;;;;101.20;60.55;;;4.90;72.00;;;;;;4691901;29;116078;-83
2023/04/11 01:24:39;;;;;;;91.85;57.83;;;4.90;72.00;;;;;;4706455;29;114592;-83
2023/04/11 01:27:07;;;;;;;90.45;54.03;;;4.90;72.10;;;;;;4703697;29;114493;-82
2023/04/11 01:29:35;;;;;;;95.03;57.63;;;4.80;72.10;;;;;;4705506;29;115158;-83
2023/04/11 01:32:03;;;;;;;91.15;57.78;;;4.80;72.10;;;;;;4706090;29;116753;-84
2023/04/11 01:34:30;;;;;;;90.72;56.75;;;4.80;72.00;;;;;;4720875;29;114922;-83
2023/04/11 01:37:00;;;;;;;86.32;54.42;;;4.80;72.00;;;;;;4690130;29;114984;-84
2023/04/11 01:39:30;;;;;;;87.70;52.83;;;4.70;71.90;;;;;;4726942;29;115641;-83
2023/04/11 01:42:00;;;;;;;78.45;47.95;;;4.70;72.00;;;;;;4741522;29;113690;-82
2023/04/11 01:44:27;;;;;;;72.53;44.78;;;4.70;72.20;;;;;;4721654;29;114834;-83
2023/04/11 01:46:59;;;;;;;78.13;49.58;;;4.60;72.30;;;;;;4720185;29;114767;-83
2023/04/11 01:49:27;;;;;;;72.22;44.75;;;4.60;72.30;;;;;;4734252;29;115341;-83
2023/04/11 01:51:54;;;;;;;74.57;46.22;;;4.60;72.30;;;;;;4703943;29;115053;-83
2023/04/11 01:54:21;;;;;;;79.32;48.38;;;4.60;72.30;;;;;;4721924;29;114847;-83
2023/04/11 01:56:49;;;;;;;74.18;45.53;;;4.60;72.00;;;;;;4722624;29;114405;-82
2023/04/11 01:59:23;;;;;;;73.30;45.22;;;4.60;72.00;;;;;;4719366;29;115355;-83
2023/04/11 02:01:51;;;;;;;74.28;46.50;;;4.50;72.00;;;;;;4719145;29;115093;-84
2023/04/11 02:04:18;;;;;;;68.68;43.90;;;4.40;72.00;;;;;;4719406;29;114596;-83
2023/04/11 02:06:46;;;;;;;75.68;48.45;;;4.30;72.10;;;;;;4732891;29;114804;-83
2023/04/11 02:09:22;;;;;;;71.50;44.50;;;4.20;72.30;;;;;;4703952;29;115316;-84
2023/04/11 02:11:51;;;;;;;76.18;49.78;;;4.20;72.50;;;;;;4705793;29;114927;-83
2023/04/11 02:14:19;;;;;;;82.20;49.38;;;4.20;72.40;;;;;;4717109;29;114889;-83
2023/04/11 02:16:54;;;;;;;73.07;45.65;;;4.20;72.20;;;;;;4702942;29;114626;-84
2023/04/11 02:19:24;;;;;;;72.88;46.63;;;4.20;72.30;;;;;;4688895;29;115811;-83
2023/04/11 02:21:52;;;;;;;70.25;44.45;;;4.20;72.30;;;;;;4689090;29;114699;-83
2023/04/11 02:24:19;;;;;;;74.15;45.35;;;4.20;72.30;;;;;;4713883;29;114865;-83
2023/04/11 02:26:46;;;;;;;72.13;45.92;;;4.20;72.20;;;;;;4713842;29;116522;-84
2023/04/11 02:29:14;;;;;;;70.10;44.70;;;4.20;72.00;;;;;;4732394;29;115296;-83
2023/04/11 02:31:41;;;;;;;70.88;45.13;;;4.20;71.90;;;;;;4721941;29;114619;-84
2023/04/11 02:34:09;;;;;;;71.28;45.42;;;4.20;71.70;;;;;;4707896;29;114965;-83
2023/04/11 02:36:36;;;;;;;69.68;43.13;;;4.20;71.70;;;;;;4739298;29;114814;-83
2023/04/11 02:39:03;;;;;;;59.65;39.28;;;4.20;71.60;;;;;;4738013;29;115304;-83
2023/04/11 02:41:31;;;;;;;62.30;41.35;;;4.10;71.50;;;;;;4722515;29;115952;-82
2023/04/11 02:43:59;;;;;;;66.55;41.95;;;4.10;71.60;;;;;;4729376;29;115088;-84
2023/04/11 02:46:27;;;;;;;64.45;41.38;;;4.10;71.70;;;;;;4708077;29;114820;-83
2023/04/11 02:48:55;;;;;;;65.93;42.03;;;4.10;71.90;;;;;;4738403;29;115423;-84
2023/04/11 02:51:23;;;;;;;67.93;41.58;;;4.10;71.90;;;;;;4737697;29;115899;-83
2023/04/11 02:53:51;;;;;;;70.38;42.60;;;4.10;71.80;;;;;;4707421;29;114487;-83
2023/04/11 02:56:20;;;;;;;70.10;44.63;;;4.20;71.70;;;;;;4738727;29;114678;-83
2023/04/11 02:58:53;;;;;;;65.53;41.40;;;4.10;71.60;;;;;;4707739;29;117453;-84
2023/04/11 03:01:23;;;;;;;67.18;42.28;;;4.10;71.50;;;;;;4723007;29;115205;-85
2023/04/11 03:03:53;;;;;;;66.93;44.08;;;4.10;71.50;;;;;;4722862;29;114645;-84
2023/04/11 03:06:23;;;;;;;63.58;41.72;;;4.10;71.50;;;;;;4723070;29;114547;-82
2023/04/11 03:08:55;;;;;;;65.10;42.88;;;4.10;71.50;;;;;;4707238;29;117353;-83
2023/04/11 03:11:23;;;;;;;61.50;39.55;;;4.10;71.50;;;;;;4736108;29;115260;-83
2023/04/11 03:13:50;;;;;;;62.92;40.58;;;4.10;71.50;;;;;;4721387;29;115208;-83
2023/04/11 03:16:18;;;;;;;63.72;41.95;;;4.00;71.70;;;;;;4722290;29;114587;-83
2023/04/11 03:18:46;;;;;;;64.05;41.53;;;4.00;71.70;;;;;;4704307;29;115370;-83
2023/04/11 03:21:13;;;;;;;63.90;41.63;;;4.10;71.60;;;;;;4686725;29;114704;-83
2023/04/11 03:23:43;;;;;;;57.53;39.47;;;4.00;71.40;;;;;;4673181;29;114591;-83
2023/04/11 03:26:13;;;;;;;58.47;39.15;;;4.00;71.20;;;;;;4693735;29;114649;-83
2023/04/11 03:28:43;;;;;;;58.75;40.42;;;3.90;71.50;;;;;;4712496;29;115446;-83
2023/04/11 03:31:12;;;;;;;59.17;39.83;;;3.90;71.50;;;;;;4671626;29;117103;-83
2023/04/11 03:33:39;;;;;;;59.00;38.20;;;3.90;71.60;;;;;;4686256;29;116022;-83
2023/04/11 03:36:07;;;;;;;60.58;40.15;;;3.90;71.60;;;;;;4686241;29;114879;-83
2023/04/11 03:38:35;;;;;;;61.22;39.25;;;4.00;71.50;;;;;;4701229;29;115814;-83
2023/04/11 03:41:02;;;;;;;51.83;36.65;;;4.00;71.60;;;;;;4699456;29;115052;-83
2023/04/11 03:43:30;;;;;;;55.60;38.17;;;4.00;71.40;;;;;;4702084;29;114827;-83
2023/04/11 03:45:58;;;;;;;58.85;38.58;;;4.10;71.20;;;;;;4701118;29;114585;-83
2023/04/11 03:48:52;;;;;;;48.15;32.42;;;4.10;71.00;;;;;;4700157;29;115270;-84
2023/04/11 03:51:21;;;;;;;47.28;32.35;;;4.00;71.00;;;;;;4686182;29;116248;-82
2023/04/11 03:53:56;;;;;;;48.05;33.17;;;4.00;71.10;;;;;;4688028;29;114868;-83
2023/04/11 03:56:29;;;;;;;50.53;32.90;;;4.00;71.20;;;;;;4703154;29;115065;-83
2023/04/11 03:58:57;;;;;;;50.95;33.28;;;4.00;71.20;;;;;;4702571;29;115161;-83
2023/04/11 04:01:50;;;;;;;52.28;35.10;;;4.00;71.20;;;;;;4717615;29;115199;-82
2023/04/11 04:04:17;;;;;;;54.45;36.00;;;4.10;70.90;;;;;;4703474;29;116629;-82
2023/04/11 04:06:49;;;;;;;50.15;34.22;;;4.10;70.90;;;;;;4713570;29;114764;-82
2023/04/11 04:09:17;;;;;;;52.55;35.22;;;4.10;71.00;;;;;;4684886;29;116404;-82
2023/04/11 04:11:51;;;;;;;51.88;36.13;;;4.10;70.90;;;;;;4690500;29;116074;-82
2023/04/11 04:14:25;;;;;;;;;;;4.10;70.90;;;;;;4690043;29;114681;-82
2023/04/11 04:16:54;;;;;;;52.42;37.85;;;4.10;70.90;;;;;;4704056;29;114898;-81
2023/04/11 04:19:22;;;;;;;56.72;39.53;;;4.10;71.10;;;;;;4716551;29;115234;-81
2023/04/11 04:21:51;;;;;;;55.70;39.20;;;4.10;71.00;;;;;;4702431;29;114781;-82
2023/04/11 04:24:19;;;;;;;55.67;40.10;;;4.20;71.00;;;;;;4687303;29;114828;-81
2023/04/11 04:26:59;;;;;;;49.10;35.72;;;4.30;70.90;;;;;;4700391;29;114622;-83
2023/04/11 04:29:46;;;;;;;50.38;34.92;;;4.30;71.00;;;;;;4695438;29;116669;-82
2023/04/11 04:32:29;;;;;;;44.15;31.45;;;4.40;71.20;;;;;;4709561;29;114972;-83
2023/04/11 04:35:06;;;;;;;41.15;29.95;;;4.60;71.10;;;;;;4676807;29;114792;-83
2023/04/11 04:37:38;;;;;;;40.42;30.13;;;4.80;70.90;;;;;;4681825;29;114566;-82
2023/04/11 04:40:14;;;;;;;40.05;27.83;;;4.90;70.80;;;;;;4710366;29;115284;-83
2023/04/11 04:42:57;;;;;;;40.40;29.95;;;5.10;70.80;;;;;;4692535;29;115781;-82
2023/04/11 04:45:36;;;;;;;36.25;27.08;;;5.20;70.50;;;;;;4704263;29;114674;-81
2023/04/11 04:48:04;;;;;;;36.95;27.38;;;5.50;70.30;;;;;;4691581;29;115187;-83
2023/04/11 04:50:32;;;;;;;34.78;25.13;;;5.70;70.00;;;;;;4693259;29;116427;-83
2023/04/11 04:52:59;;;;;;;32.95;25.75;;;5.90;69.80;;;;;;4692714;29;114873;-83
2023/04/11 04:55:27;;;;;;;36.17;26.13;;;6.10;69.40;;;;;;4705568;29;114560;-83
2023/04/11 04:57:55;;;;;;;36.85;26.75;;;6.20;69.20;;;;;;4684932;29;116317;-83
2023/04/11 05:00:22;;;;;;;37.78;26.63;;;6.50;68.80;;;;;;4669917;29;115228;-85
2023/04/11 05:02:53;;;;;;;36.40;24.52;;;6.70;69.10;;;;;;4699289;29;114942;-82
2023/04/11 05:05:24;;;;;;;34.38;23.85;;;6.80;68.80;;;;;;4698480;29;114958;-82
2023/04/11 05:07:52;;;;;;;35.85;26.25;;;7.00;69.00;;;;;;4699602;29;114625;-84
2023/04/11 05:10:21;;;;;;;39.60;28.17;;;7.10;68.90;;;;;;4684501;29;115397;-83
2023/04/11 05:12:49;;;;;;;39.20;27.83;;;7.20;68.60;;;;;;4692100;29;114770;-83
2023/04/11 05:15:17;;;;;;;39.00;28.17;;;7.20;68.30;;;;;;4688151;29;115362;-82
2023/04/11 05:17:45;;;;;;;34.67;25.15;;;7.30;68.20;;;;;;4688656;29;114686;-83
2023/04/11 05:20:14;;;;;;;43.85;29.05;;;7.40;67.30;;;;;;4655869;29;115200;-83
2023/04/11 05:22:47;;;;;;;43.13;28.88;;;7.60;67.00;;;;;;4684864;29;116067;-83
2023/04/11 05:25:15;;;;;;;49.28;33.78;;;7.70;67.00;;;;;;4671955;29;114671;-83
2023/04/11 05:27:43;;;;;;;48.25;32.83;;;7.90;66.60;;;;;;4699498;29;114581;-83
2023/04/11 05:30:12;;;;;;;46.45;29.83;;;8.10;66.20;;;;;;4683394;29;115245;-81
2023/04/11 05:32:41;;;;;;;37.08;24.30;;;8.30;65.90;;;;;;4684760;29;114824;-83
2023/04/11 05:35:09;;;;;;;25.25;18.40;;;8.50;65.50;;;;;;4684927;29;115908;-83
2023/04/11 05:37:47;;;;;;;20.38;13.95;;;8.70;65.10;;;;;;4672808;29;115250;-83
2023/04/11 05:40:15;;;;;;;19.20;13.57;;;8.80;64.50;;;;;;4669667;29;115417;-83
2023/04/11 05:42:42;;;;;;;15.18;10.93;;;9.00;64.10;;;;;;4670849;29;114921;-83
2023/04/11 05:45:09;;;;;;;13.15;9.32;;;9.20;63.50;;;;;;4683349;29;114557;-83
2023/04/11 05:47:37;;;;;;;14.25;9.35;;;9.30;62.60;;;;;;4705402;29;114779;-84
2023/04/11 05:50:06;;;;;;;14.50;9.73;;;9.40;62.10;;;;;;4685394;29;115358;-83
2023/04/11 05:52:33;;;;;;;16.80;11.18;;;9.40;62.00;;;;;;4700190;29;115282;-82
2023/04/11 05:55:01;;;;;;;13.05;9.52;;;9.50;61.80;;;;;;4704455;29;114542;-83
2023/04/11 05:57:28;;;;;;;11.25;8.63;;;9.60;61.50;;;;;;4710177;29;114629;-83
2023/04/11 05:59:55;;;;;;;12.48;9.10;;;9.60;60.90;;;;;;4682493;29;116051;-82
2023/04/11 06:02:26;;;;;;;12.63;9.20;;;9.60;60.50;;;;;;4688478;29;115752;-83
2023/04/11 06:04:54;;;;;;;11.88;9.07;;;9.50;60.10;;;;;;4683810;29;114587;-82
2023/04/11 06:07:26;;;;;;;13.30;10.07;;;9.40;60.50;;;;;;4704174;29;114626;-83
2023/04/11 06:09:53;;;;;;;12.93;10.00;;;9.50;60.50;;;;;;4698250;29;117225;-83
2023/04/11 06:12:21;;;;;;;13.88;11.07;;;9.40;60.70;;;;;;4702671;29;114854;-83
2023/04/11 06:14:51;;;;;;;14.63;11.98;;;9.50;60.60;;;;;;4673647;29;114957;-83
2023/04/11 06:17:18;;;;;;;17.17;12.70;;;9.50;60.30;;;;;;4687446;29;117968;-83
2023/04/11 06:19:45;;;;;;;17.30;11.93;;;9.60;60.20;;;;;;4711883;29;115670;-83
2023/04/11 06:22:13;;;;;;;12.32;9.32;;;9.70;60.10;;;;;;4716745;29;114938;-82
2023/04/11 06:24:40;;;;;;;11.73;9.00;;;9.70;59.50;;;;;;4716579;29;114644;-83
2023/04/11 06:27:10;;;;;;;12.25;8.77;;;9.70;59.00;;;;;;4699177;29;114778;-81
2023/04/11 06:29:38;;;;;;;11.20;7.50;;;9.70;58.80;;;;;;4686918;29;115683;-81
2023/04/11 06:32:06;;;;;;;11.60;7.80;;;9.60;58.60;;;;;;4703067;29;116404;-81
2023/04/11 06:34:33;;;;;;;10.45;7.90;;;9.60;59.20;;;;;;4704255;29;114630;-82
2023/04/11 06:37:01;;;;;;;10.55;7.97;;;9.70;59.10;;;;;;4703753;29;114823;-82
2023/04/11 06:39:29;;;;;;;10.73;7.22;;;9.90;59.20;;;;;;4703611;29;119094;-81
2023/04/11 06:41:56;;;;;;;12.60;8.13;;;10.30;58.70;;;;;;4718306;29;114931;-81
2023/04/11 06:44:26;;;;;;;10.38;6.80;;;10.60;57.80;;;;;;4707835;29;114727;-81
2023/04/11 06:46:55;;;;;;;11.18;7.82;;;10.70;57.30;;;;;;4692059;29;115092;-83
2023/04/11 06:49:23;;;;;;;9.27;6.93;;;10.80;57.00;;;;;;4716033;29;115205;-83
2023/04/11 06:51:53;;;;;;;11.75;7.30;;;11.00;56.40;;;;;;4693214;29;115917;-83
2023/04/11 06:54:21;;;;;;;9.82;6.78;;;11.00;56.10;;;;;;4682812;29;114927;-83
2023/04/11 06:56:52;;;;;;;8.73;6.60;;;11.00;56.10;;;;;;4710031;29;114586;-83
2023/04/11 06:59:55;;;;;;;11.07;6.57;;;10.90;55.60;;;;;;4686640;29;115455;-81
2023/04/11 07:02:23;;;;;;;11.02;6.45;;;10.80;56.10;;;;;;4704716;29;114589;-84
2023/04/11 07:04:52;;;;;;;12.38;7.30;;;10.70;56.30;;;;;;4710852;29;116469;-83
2023/04/11 07:07:20;;;;;;;11.82;6.85;;;10.90;56.40;;;;;;4698023;29;114869;-85
2023/04/11 07:09:47;;;;;;;13.40;6.93;;;11.00;56.30;;;;;;4714467;29;115356;-84
2023/04/11 07:12:14;;;;;;;12.02;6.70;;;11.20;56.00;;;;;;4679852;29;114736;-83
2023/04/11 07:14:42;;;;;;;10.75;6.40;;;11.20;55.70;;;;;;4716410;29;114818;-83
2023/04/11 07:17:09;;;;;;;10.30;6.20;;;11.20;55.20;;;;;;4707337;29;116851;-83
2023/04/11 07:19:37;;;;;;;12.38;6.72;;;11.20;55.40;;;;;;4708144;29;115687;-83
2023/04/11 07:22:06;;;;;;;9.05;6.38;;;11.30;55.20;;;;;;4715441;29;116568;-85
2023/04/11 07:24:34;;;;;;;8.82;6.32;;;11.20;55.10;;;;;;4731422;29;114799;-84
2023/04/11 07:27:01;;;;;;;10.35;7.50;;;11.20;54.90;;;;;;4731904;29;114792;-82
2023/04/11 07:29:29;;;;;;;16.75;7.85;;;11.20;55.00;;;;;;4730887;29;115283;-83
2023/04/11 07:31:57;;;;;;;23.38;11.90;;;11.20;55.10;;;;;;4716513;29;114646;-85
2023/04/11 07:34:25;;;;;;;62.72;32.55;;;11.10;55.30;;;;;;4715246;29;114707;-83
2023/04/11 07:36:56;;;;;;;15.63;10.25;;;11.10;55.50;;;;;;4731376;29;116644;-84
2023/04/11 07:39:25;;;;;;;14.05;9.23;;;11.20;55.50;;;;;;4726963;29;115761;-83
2023/04/11 07:41:53;;;;;;;10.23;7.50;;;11.20;55.40;;;;;;4719948;29;118723;-84
2023/04/11 07:44:21;;;;;;;11.80;8.63;;;11.10;55.40;;;;;;4717207;29;114689;-84
2023/04/11 07:46:52;;;;;;;11.23;7.30;;;11.10;55.30;;;;;;4720684;29;114818;-83
2023/04/11 07:49:21;;;;;;;12.13;8.75;;;11.10;55.20;;;;;;4732053;29;115259;-83
2023/04/11 07:51:51;;;;;;;10.70;7.82;;;11.00;55.40;;;;;;4732620;29;115178;-83
2023/04/11 07:54:19;;;;;;;8.88;6.45;;;11.10;55.50;;;;;;4720091;29;115270;-84
2023/04/11 07:56:47;;;;;;;8.07;6.20;;;11.20;55.40;;;;;;4698153;29;114948;-84
2023/04/11 07:59:15;;;;;;;9.43;6.80;;;11.20;55.40;;;;;;4711243;29;115265;-83
2023/04/11 08:01:46;;;;;;;10.48;7.57;;;11.20;55.40;;;;;;4700411;29;114841;-87
2023/04/11 08:04:15;;;;;;;8.82;6.07;;;11.30;55.70;;;;;;4698694;29;114611;-84
2023/04/11 08:06:43;;;;;;;10.85;6.45;;;11.40;54.90;;;;;;4695327;29;114498;-83
2023/04/11 08:09:11;;;;;;;10.13;7.13;;;11.50;54.50;;;;;;4681434;29;115524;-85
2023/04/11 08:11:38;;;;;;;11.52;6.72;;;11.50;54.10;;;;;;4694912;29;114977;-84
2023/04/11 08:14:05;;;;;;;9.50;6.35;;;11.40;53.70;;;;;;4700563;29;114539;-83
2023/04/11 08:16:34;;;;;;;8.02;6.65;;;11.40;53.90;;;;;;4718469;29;114545;-83
2023/04/11 08:19:02;;;;;;;9.65;6.43;;;11.50;54.20;;;;;;4677315;29;118200;-84
2023/04/11 08:21:30;;;;;;;10.40;6.45;;;11.60;53.90;;;;;;4691091;29;114930;-83
2023/04/11 08:23:57;;;;;;;8.55;6.68;;;11.60;53.10;;;;;;4696934;29;115021;-84
2023/04/11 08:26:25;;;;;;;9.73;7.20;;;11.50;53.20;;;;;;4692395;29;115255;-83
2023/04/11 08:28:53;;;;;;;9.13;6.95;;;11.60;53.50;;;;;;4690292;29;115187;-84
2023/04/11 08:31:20;;;;;;;9.95;7.43;;;11.60;52.90;;;;;;4691171;29;114939;-85
2023/04/11 08:33:47;;;;;;;10.07;7.72;;;11.50;53.20;;;;;;4706036;29;114872;-85
2023/04/11 08:36:15;;;;;;;13.52;6.72;;;11.60;53.30;;;;;;4677100;29;115018;-84
2023/04/11 08:38:42;;;;;;;13.75;9.55;;;11.70;53.20;;;;;;4701808;29;114550;-85
2023/04/11 08:41:10;;;;;;;10.32;7.00;;;11.60;53.60;;;;;;4717530;29;114854;-84
2023/04/11 08:43:39;;;;;;;10.60;7.63;;;11.70;53.20;;;;;;4675196;29;117271;-85
2023/04/11 08:46:07;;;;;;;11.18;7.70;;;11.80;53.50;;;;;;4692640;29;114517;-86
2023/04/11 08:48:42;;;;;;;10.57;7.00;;;11.80;52.40;;;;;;4698672;29;117347;-85
2023/04/11 08:51:11;;;;;;;9.57;7.70;;;11.90;52.00;;;;;;4713430;29;114354;-85
2023/04/11 08:53:39;;;;;;;10.20;7.22;;;11.80;52.30;;;;;;4709401;29;114823;-87
2023/04/11 08:56:15;;;;;;;10.15;7.60;;;11.80;52.60;;;;;;4693081;29;114665;-87
2023/04/11 08:58:43;;;;;;;11.50;7.68;;;11.90;52.50;;;;;;4705368;29;118390;-84
2023/04/11 09:01:31;;;;;;;9.77;7.43;;;11.90;51.80;;;;;;4719934;29;114961;-83
2023/04/11 09:04:00;;;;;;;10.38;6.70;;;12.00;51.80;;;;;;4676908;29;114683;-82
2023/04/11 09:06:29;;;;;;;11.27;7.47;;;11.90;52.10;;;;;;4719587;29;114534;-83
2023/04/11 09:08:58;;;;;;;11.48;7.63;;;12.00;52.20;;;;;;4720772;29;115290;-83
2023/04/11 09:11:26;;;;;;;9.25;7.50;;;12.20;52.20;;;;;;4706050;29;114697;-83
2023/04/11 09:14:12;;;;;;;11.82;7.35;;;12.20;51.80;;;;;;4735056;29;114704;-83
2023/04/11 09:16:40;;;;;;;11.43;7.60;;;12.30;51.20;;;;;;4721481;29;114484;-83
2023/04/11 09:19:23;;;;;;;11.60;7.25;;;12.30;51.30;;;;;;4711265;29;115898;-85
2023/04/11 09:21:50;;;;;;;11.35;7.38;;;12.50;51.20;;;;;;4710235;29;115847;-83
2023/04/11 09:24:17;;;;;;;10.05;7.22;;;12.60;51.40;;;;;;4715071;29;114884;-85
2023/04/11 09:26:44;;;;;;;9.85;7.22;;;12.70;51.40;;;;;;4715092;29;114979;-83
2023/04/11 09:29:36;;;;;;;11.70;7.43;;;12.80;50.80;;;;;;4708925;29;114979;-85
2023/04/11 09:32:05;;;;;;;13.07;8.30;;;13.00;50.00;;;;;;4722128;29;115141;-85
2023/04/11 09:34:38;;;;;;;12.98;9.23;;;12.90;50.30;;;;;;4703135;29;114773;-85
2023/04/11 09:37:08;;;;;;;12.68;8.45;;;13.10;50.50;;;;;;4716471;29;114735;-85
2023/04/11 09:39:36;;;;;;;13.65;8.32;;;13.20;50.10;;;;;;4716744;29;115317;-85
2023/04/11 09:42:23;;;;;;;12.68;9.02;;;13.40;49.90;;;;;;4730740;29;114812;-84
2023/04/11 09:44:52;;;;;;;15.20;10.20;;;13.60;49.40;;;;;;4702471;29;114767;-84
2023/04/11 09:47:19;;;;;;;14.65;9.88;;;13.60;48.80;;;;;;4718932;29;114616;-84
2023/04/11 09:49:47;;;;;;;14.38;10.63;;;13.70;47.90;;;;;;4727771;29;117419;-84
2023/04/11 09:52:14;;;;;;;11.65;8.57;;;13.70;47.70;;;;;;4683987;29;115253;-85
2023/04/11 09:54:42;;;;;;;12.15;8.48;;;13.70;48.10;;;;;;4685051;29;114736;-85
2023/04/11 09:57:09;;;;;;;11.02;8.07;;;13.90;47.90;;;;;;4704446;29;114539;-84
2023/04/11 09:59:37;;;;;;;12.98;8.07;;;14.00;47.60;;;;;;4700434;29;115967;-85
2023/04/11 10:02:04;;;;;;;12.00;8.43;;;14.10;48.00;;;;;;4699623;29;117681;-84
2023/04/11 10:04:33;;;;;;;12.20;8.57;;;14.20;48.10;;;;;;4715356;29;114815;-85
2023/04/11 10:07:17;;;;;;;12.23;8.40;;;14.40;47.80;;;;;;4692384;29;115215;-84
2023/04/11 10:09:44;;;;;;;10.77;8.25;;;14.60;47.60;;;;;;4704797;29;115522;-85
2023/04/11 10:12:11;;;;;;;12.00;7.53;;;14.70;47.70;;;;;;4705054;29;114904;-85
2023/04/11 10:14:40;;;;;;;11.10;7.53;;;14.70;47.10;;;;;;4661726;29;114608;-85
2023/04/11 10:17:19;;;;;;;10.60;7.70;;;14.80;46.50;;;;;;4709752;29;114903;-84
2023/04/11 10:19:56;;;;;;;8.88;6.80;;;14.80;45.90;;;;;;4703843;29;119974;-84
2023/04/11 10:22:59;;;;;;;9.45;7.13;;;14.90;45.70;;;;;;4682974;29;119206;-85
2023/04/11 10:25:27;;;;;;;9.48;7.75;;;15.00;46.70;;;;;;4702002;29;116611;-84
2023/04/11 10:28:05;;;;;;;12.10;7.50;;;15.00;45.60;;;;;;4702584;29;114951;-85
2023/04/11 10:30:39;;;;;;;11.13;8.43;;;15.10;45.30;;;;;;4720170;29;115354;-84
2023/04/11 10:33:16;;;;;;;11.82;7.18;;;15.20;45.00;;;;;;4703869;29;116769;-85
2023/04/11 10:36:05;;;;;;;10.07;7.38;;;15.20;44.40;;;;;;4706383;29;114957;-84
2023/04/11 10:38:44;;;;;;;10.70;7.00;;;15.30;44.40;;;;;;4705481;29;114918;-84
2023/04/11 10:41:21;;;;;;;8.88;6.55;;;15.30;44.30;;;;;;4726170;29;115323;-85
2023/04/11 10:43:49;;;;;;;9.40;6.40;;;15.30;42.40;;;;;;4737874;29;113997;-87
2023/04/11 10:46:22;;;;;;;7.38;6.15;;;15.20;42.50;;;;;;4698625;29;114971;-85
2023/04/11 10:49:03;;;;;;;9.75;7.10;;;15.30;42.60;;;;;;4710148;29;114873;-85
2023/04/11 10:51:31;;;;;;;8.43;6.20;;;15.30;41.90;;;;;;4713007;29;115825;-85
2023/04/11 10:54:00;;;;;;;7.47;6.20;;;15.30;42.10;;;;;;4713631;29;116501;-86
2023/04/11 10:56:53;;;;;;;7.38;5.05;;;15.40;41.90;;;;;;4692326;29;115445;-83
2023/04/11 10:59:33;;;;;;;6.95;4.97;;;15.50;41.10;;;;;;4710872;29;115609;-85
2023/04/11 11:02:01;;;;;;;8.07;4.88;;;15.50;40.20;;;;;;4729676;29;115371;-86
2023/04/11 11:04:33;;;;;;;6.57;4.90;;;15.50;39.50;;;;;;4717529;29;118401;-86
2023/04/11 11:07:03;;;;;;;7.03;5.10;;;15.60;39.30;;;;;;4698267;29;114834;-86
2023/04/11 11:09:33;;;;;;;5.90;4.25;;;15.70;39.20;;;;;;4710040;29;114642;-85
2023/04/11 11:12:05;;;;;;;7.75;4.75;;;15.70;37.90;;;;;;4710624;29;118529;-85
2023/04/11 11:14:34;;;;;;;7.28;4.38;;;15.80;36.80;;;;;;4696251;29;118300;-84
2023/04/11 11:17:01;;;;;;;5.80;3.95;;;15.80;36.70;;;;;;4698170;29;114624;-84
2023/04/11 11:19:30;;;;;;;6.28;4.22;;;15.80;36.80;;;;;;4696623;29;114706;-84
2023/04/11 11:22:02;;;;;;;5.20;4.30;;;15.80;37.00;;;;;;4697725;29;115275;-84
2023/04/11 11:24:30;;;;;;;6.13;3.97;;;15.90;36.60;;;;;;4713806;29;116133;-84
2023/04/11 11:26:58;;;;;;;8.02;5.68;;;15.90;36.80;;;;;;4697247;29;116452;-84
2023/04/11 11:29:32;;;;;;;7.40;4.78;;;15.90;37.10;;;;;;4699259;29;115225;-86
2023/04/11 11:32:04;;;;;;;6.45;4.72;;;16.00;36.50;;;;;;4699031;29;118522;-84
2023/04/11 11:34:37;;;;;;;6.28;4.70;;;16.00;37.00;;;;;;4714075;29;114806;-84
2023/04/11 11:37:05;;;;;;;7.75;4.95;;;16.00;36.60;;;;;;4713409;29;114751;-85
2023/04/11 11:39:34;;;;;;;7.43;4.90;;;16.00;37.30;;;;;;4680843;29;114748;-84
2023/04/11 11:42:02;;;;;;;5.93;4.72;;;16.10;37.40;;;;;;4698521;29;116320;-84
2023/04/11 11:48:00;;;;;;;7.53;4.93;;;16.20;36.70;;;;;;5064839;27;115579;-84
2023/04/11 11:50:31;;;;;;;7.47;5.18;;;16.20;37.20;;;;;;5062421;27;114799;-86
2023/04/11 11:53:12;;;;;;;7.03;5.50;;;16.40;37.00;;;;;;5045094;27;118120;-85
2023/04/11 11:55:40;;;;;;;7.80;5.57;;;16.40;37.00;;;;;;4996084;27;118038;-84
2023/04/11 11:58:07;;;;;;;7.53;5.78;;;16.50;36.50;;;;;;5029585;27;114470;-85
2023/04/11 12:00:38;;;;;;;7.57;5.80;;;16.40;36.50;;;;;;5011911;27;114613;-86
2023/04/11 12:03:08;;;;;;;6.57;5.15;;;16.40;36.50;;;;;;5027903;27;118091;-85
2023/04/11 12:05:36;;;;;;;8.18;6.45;;;16.40;37.20;;;;;;5018964;27;117947;-85
2023/04/11 12:08:05;;;;;;;8.20;5.90;;;16.40;37.30;;;;;;5030483;27;116110;-85
2023/04/11 12:10:41;;;;;;;9.50;5.78;;;16.30;37.30;;;;;;5078555;27;114491;-86
2023/04/11 12:13:22;;;;;;;8.25;5.40;;;16.40;36.70;;;;;;5027703;27;115034;-86
2023/04/11 12:15:50;;;;;;;9.00;5.93;;;16.30;37.10;;;;;;5012098;27;118067;-86
2023/04/11 12:18:21;;;;;;;7.60;5.75;;;16.30;36.70;;;;;;5031215;27;114293;-86
2023/04/11 12:20:49;;;;;;;8.43;6.00;;;16.30;36.40;;;;;;5046158;27;114326;-86
2023/04/11 12:23:17;;;;;;;8.43;6.03;;;16.30;36.80;;;;;;5028941;27;117525;-85
2023/04/11 12:25:45;;;;;;;8.50;6.03;;;16.20;37.20;;;;;;5047899;27;115200;-86
2023/04/11 12:28:14;;;;;;;8.02;5.82;;;16.20;37.30;;;;;;5015583;27;114894;-86
2023/04/11 12:30:45;;;;;;;9.20;6.65;;;16.20;37.40;;;;;;5045796;27;114644;-84
2023/04/11 12:33:15;;;;;;;8.50;6.10;;;16.20;37.80;;;;;;5066162;27;114939;-84
2023/04/11 12:35:43;;;;;;;9.35;6.63;;;16.10;37.70;;;;;;5073248;27;114758;-84
2023/04/11 12:38:10;;;;;;;8.18;6.70;;;16.10;37.80;;;;;;5031084;27;114490;-85
2023/04/11 12:40:45;;;;;;;8.47;7.13;;;15.90;38.00;;;;;;5047119;27;114409;-85
2023/04/11 12:43:12;;;;;;;8.13;6.35;;;15.90;38.10;;;;;;5028986;27;114989;-86
2023/04/11 12:45:39;;;;;;;8.57;6.75;;;15.90;38.50;;;;;;5027039;27;114657;-85